RYR8NH EYVI-LOWW
Flight info
| Callsign | RYR8NH |
|---|---|
| Flight time | N/A |
| Altitude | 36000 |
| Route | UPASI1B/19 UPASI DCT TUNGA DCT SUWGI M985 EVINA N744 TUSIN DCT MIKOV MIKOV8W |
| Aircraft | B738/M-SDE3FGILRWY/SB1 |
Departure
| Time | N/A |
|---|---|
| Airport | Vilnius International Airport (EYVI) |
Arrival
| Time | 2026-05-03 21:00 |
|---|---|
| Airport | Vienna International Airport (LOWW) |
| Time | Latitude | Longitude | Altitude | Speed | Heading |
|---|---|---|---|---|---|
| 2026-05-03 20:15 | 51.11259 | 19.74131 | 36033 ft | 440 kts | 212° |
| 2026-05-03 20:15 | 51.06003 | 19.69130 | 36034 ft | 440 kts | 212° |
| 2026-05-03 20:16 | 51.00745 | 19.64141 | 36043 ft | 440 kts | 212° |
| 2026-05-03 20:16 | 50.95485 | 19.59164 | 36041 ft | 441 kts | 212° |
| 2026-05-03 20:17 | 50.90213 | 19.54188 | 36044 ft | 441 kts | 212° |
| 2026-05-03 20:17 | 50.84940 | 19.49225 | 36037 ft | 442 kts | 212° |
| 2026-05-03 20:18 | 50.79650 | 19.44260 | 36049 ft | 442 kts | 212° |
| 2026-05-03 20:18 | 50.74355 | 19.39302 | 36053 ft | 443 kts | 212° |
| 2026-05-03 20:19 | 50.69047 | 19.34346 | 36055 ft | 444 kts | 212° |
| 2026-05-03 20:19 | 50.63732 | 19.29395 | 36044 ft | 444 kts | 212° |
| 2026-05-03 20:20 | 50.58403 | 19.24447 | 36074 ft | 445 kts | 212° |
| 2026-05-03 20:20 | 50.53066 | 19.19502 | 36077 ft | 445 kts | 212° |
| 2026-05-03 20:21 | 50.47724 | 19.14567 | 36078 ft | 446 kts | 212° |
| 2026-05-03 20:21 | 50.42374 | 19.09638 | 36072 ft | 446 kts | 212° |
| 2026-05-03 20:22 | 50.37054 | 19.04748 | 36076 ft | 446 kts | 212° |
| 2026-05-03 20:22 | 50.31696 | 18.99837 | 36073 ft | 446 kts | 212° |
| 2026-05-03 20:23 | 50.26337 | 18.94938 | 36069 ft | 446 kts | 212° |
| 2026-05-03 20:23 | 50.20977 | 18.90051 | 36062 ft | 446 kts | 212° |
| 2026-05-03 20:24 | 50.15619 | 18.85178 | 36071 ft | 446 kts | 211° |
| 2026-05-03 20:24 | 50.10256 | 18.80313 | 36068 ft | 446 kts | 211° |
| 2026-05-03 20:25 | 50.04892 | 18.75460 | 36068 ft | 446 kts | 211° |
| 2026-05-03 20:25 | 49.99529 | 18.70620 | 36069 ft | 446 kts | 211° |
| 2026-05-03 20:26 | 49.94157 | 18.65784 | 36071 ft | 446 kts | 211° |
| 2026-05-03 20:26 | 49.88825 | 18.60997 | 35739 ft | 438 kts | 211° |
| 2026-05-03 20:26 | 49.86242 | 18.58601 | 35457 ft | 430 kts | 217° |
| 2026-05-03 20:27 | 49.83930 | 18.55722 | 35121 ft | 423 kts | 225° |
| 2026-05-03 20:27 | 49.81972 | 18.52374 | 34734 ft | 418 kts | 233° |
| 2026-05-03 20:27 | 49.80153 | 18.48885 | 34369 ft | 415 kts | 233° |
| 2026-05-03 20:27 | 49.78355 | 18.45405 | 33979 ft | 412 kts | 233° |
| 2026-05-03 20:28 | 49.76569 | 18.41955 | 33561 ft | 410 kts | 233° |
| 2026-05-03 20:28 | 49.74784 | 18.38527 | 33168 ft | 407 kts | 233° |
| 2026-05-03 20:28 | 49.73011 | 18.35143 | 32789 ft | 404 kts | 233° |
| 2026-05-03 20:28 | 49.71242 | 18.31783 | 32414 ft | 401 kts | 232° |
| 2026-05-03 20:29 | 49.69485 | 18.28459 | 32060 ft | 398 kts | 232° |
| 2026-05-03 20:29 | 49.67740 | 18.25164 | 31705 ft | 395 kts | 232° |
| 2026-05-03 20:29 | 49.66006 | 18.21896 | 31355 ft | 392 kts | 232° |
| 2026-05-03 20:29 | 49.64283 | 18.18655 | 31004 ft | 390 kts | 232° |
| 2026-05-03 20:30 | 49.62569 | 18.15436 | 30653 ft | 387 kts | 232° |
| 2026-05-03 20:30 | 49.60863 | 18.12235 | 30312 ft | 385 kts | 232° |
| 2026-05-03 20:30 | 49.59170 | 18.09061 | 29940 ft | 383 kts | 232° |
| 2026-05-03 20:30 | 49.57485 | 18.05907 | 29535 ft | 380 kts | 232° |
| 2026-05-03 20:31 | 49.55813 | 18.02782 | 29183 ft | 376 kts | 232° |
| 2026-05-03 20:31 | 49.54157 | 17.99688 | 28817 ft | 373 kts | 232° |
| 2026-05-03 20:31 | 49.52518 | 17.96630 | 28467 ft | 369 kts | 233° |
| 2026-05-03 20:31 | 49.50893 | 17.93599 | 28105 ft | 366 kts | 232° |
| 2026-05-03 20:32 | 49.49278 | 17.90593 | 27757 ft | 363 kts | 231° |
| 2026-05-03 20:32 | 49.47699 | 17.87660 | 27418 ft | 360 kts | 232° |
| 2026-05-03 20:32 | 49.46106 | 17.84703 | 27064 ft | 357 kts | 232° |
| 2026-05-03 20:32 | 49.44529 | 17.81777 | 26721 ft | 355 kts | 232° |
| 2026-05-03 20:33 | 49.42961 | 17.78870 | 26387 ft | 352 kts | 232° |
| 2026-05-03 20:33 | 49.41404 | 17.75989 | 26053 ft | 349 kts | 231° |
| 2026-05-03 20:33 | 49.39856 | 17.73127 | 25720 ft | 347 kts | 231° |
| 2026-05-03 20:33 | 49.38316 | 17.70283 | 25374 ft | 345 kts | 231° |
| 2026-05-03 20:34 | 49.36784 | 17.67457 | 25062 ft | 343 kts | 231° |
| 2026-05-03 20:34 | 49.35259 | 17.64646 | 24730 ft | 342 kts | 231° |
| 2026-05-03 20:34 | 49.33741 | 17.61851 | 24401 ft | 340 kts | 231° |
| 2026-05-03 20:34 | 49.32232 | 17.59075 | 24073 ft | 339 kts | 231° |
| 2026-05-03 20:35 | 49.30726 | 17.56308 | 23743 ft | 337 kts | 231° |
| 2026-05-03 20:35 | 49.29229 | 17.53561 | 23358 ft | 335 kts | 231° |
| 2026-05-03 20:35 | 49.27737 | 17.50825 | 22993 ft | 333 kts | 231° |
| 2026-05-03 20:35 | 49.26257 | 17.48114 | 22647 ft | 331 kts | 231° |
| 2026-05-03 20:36 | 49.24787 | 17.45425 | 22329 ft | 328 kts | 231° |
| 2026-05-03 20:36 | 49.23329 | 17.42761 | 21993 ft | 325 kts | 231° |
| 2026-05-03 20:36 | 49.21882 | 17.40119 | 21669 ft | 323 kts | 230° |
| 2026-05-03 20:36 | 49.20446 | 17.37499 | 21344 ft | 320 kts | 230° |
| 2026-05-03 20:37 | 49.19019 | 17.34899 | 21033 ft | 318 kts | 230° |
| 2026-05-03 20:37 | 49.17602 | 17.32319 | 20715 ft | 316 kts | 230° |
| 2026-05-03 20:37 | 49.16191 | 17.29753 | 20402 ft | 314 kts | 230° |
| 2026-05-03 20:37 | 49.14792 | 17.27212 | 20092 ft | 312 kts | 230° |
| 2026-05-03 20:38 | 49.13398 | 17.24681 | 19785 ft | 310 kts | 230° |
| 2026-05-03 20:38 | 49.12011 | 17.22166 | 19476 ft | 309 kts | 230° |
| 2026-05-03 20:38 | 49.10623 | 17.19651 | 19104 ft | 311 kts | 230° |
| 2026-05-03 20:38 | 49.09225 | 17.17119 | 18724 ft | 312 kts | 230° |
| 2026-05-03 20:39 | 49.07821 | 17.14581 | 18359 ft | 313 kts | 230° |
| 2026-05-03 20:39 | 49.06417 | 17.12044 | 17961 ft | 313 kts | 230° |
| 2026-05-03 20:39 | 49.05013 | 17.09510 | 17557 ft | 313 kts | 230° |
| 2026-05-03 20:39 | 49.03598 | 17.06994 | 17158 ft | 313 kts | 229° |
| 2026-05-03 20:40 | 49.02163 | 17.04506 | 16780 ft | 312 kts | 229° |
| 2026-05-03 20:40 | 49.00725 | 17.02030 | 16396 ft | 312 kts | 228° |
| 2026-05-03 20:40 | 48.99287 | 16.99559 | 16019 ft | 312 kts | 228° |
| 2026-05-03 20:40 | 48.97846 | 16.97087 | 15641 ft | 311 kts | 228° |
| 2026-05-03 20:41 | 48.96411 | 16.94625 | 15278 ft | 311 kts | 228° |
| 2026-05-03 20:41 | 48.94978 | 16.92166 | 14914 ft | 310 kts | 228° |
| 2026-05-03 20:41 | 48.93548 | 16.89709 | 14555 ft | 309 kts | 228° |
| 2026-05-03 20:41 | 48.92125 | 16.87260 | 14203 ft | 309 kts | 228° |
| 2026-05-03 20:42 | 48.90726 | 16.84850 | 13843 ft | 308 kts | 228° |
| 2026-05-03 20:42 | 48.89313 | 16.82414 | 13447 ft | 307 kts | 228° |
| 2026-05-03 20:42 | 48.87905 | 16.79983 | 13053 ft | 306 kts | 228° |
| 2026-05-03 20:42 | 48.86504 | 16.77558 | 12668 ft | 305 kts | 228° |
| 2026-05-03 20:43 | 48.85111 | 16.75143 | 12289 ft | 304 kts | 228° |
| 2026-05-03 20:43 | 48.83723 | 16.72733 | 11905 ft | 301 kts | 228° |
| 2026-05-03 20:43 | 48.82365 | 16.70371 | 11513 ft | 293 kts | 228° |
| 2026-05-03 20:43 | 48.81046 | 16.68071 | 11146 ft | 286 kts | 228° |
| 2026-05-03 20:44 | 48.79760 | 16.65822 | 10779 ft | 279 kts | 228° |
| 2026-05-03 20:44 | 48.78502 | 16.63611 | 10411 ft | 274 kts | 228° |
| 2026-05-03 20:44 | 48.77273 | 16.61445 | 10042 ft | 269 kts | 228° |
| 2026-05-03 20:44 | 48.76067 | 16.59313 | 9657 ft | 264 kts | 228° |
| 2026-05-03 20:45 | 48.74888 | 16.57202 | 9263 ft | 260 kts | 228° |
| 2026-05-03 20:45 | 48.73734 | 16.55119 | 8890 ft | 256 kts | 227° |
| 2026-05-03 20:45 | 48.72605 | 16.53056 | 8497 ft | 253 kts | 228° |
| 2026-05-03 20:45 | 48.71496 | 16.51019 | 8123 ft | 249 kts | 228° |
| 2026-05-03 20:46 | 48.70406 | 16.48998 | 7760 ft | 246 kts | 229° |
| 2026-05-03 20:46 | 48.69324 | 16.46999 | 7390 ft | 244 kts | 228° |
| 2026-05-03 20:46 | 48.68233 | 16.45058 | 7049 ft | 240 kts | 219° |
| 2026-05-03 20:46 | 48.66734 | 16.44064 | 6815 ft | 244 kts | 182° |
| 2026-05-03 20:47 | 48.64998 | 16.44276 | 6626 ft | 254 kts | 176° |
| 2026-05-03 20:47 | 48.63227 | 16.44349 | 6388 ft | 256 kts | 182° |
| 2026-05-03 20:47 | 48.61438 | 16.44241 | 6147 ft | 257 kts | 179° |
| 2026-05-03 20:47 | 48.59663 | 16.44414 | 5889 ft | 254 kts | 175° |
| 2026-05-03 20:48 | 48.57913 | 16.44659 | 5634 ft | 251 kts | 175° |
| 2026-05-03 20:48 | 48.56180 | 16.44899 | 5383 ft | 249 kts | 175° |
| 2026-05-03 20:48 | 48.54460 | 16.45126 | 5139 ft | 247 kts | 175° |
| 2026-05-03 20:48 | 48.52769 | 16.45338 | 5007 ft | 239 kts | 176° |
| 2026-05-03 20:49 | 48.51167 | 16.45532 | 4973 ft | 229 kts | 176° |
| 2026-05-03 20:49 | 48.49587 | 16.45719 | 4976 ft | 225 kts | 176° |
| 2026-05-03 20:49 | 48.48082 | 16.45893 | 4987 ft | 208 kts | 176° |
| 2026-05-03 20:49 | 48.46697 | 16.46053 | 4958 ft | 191 kts | 176° |
| 2026-05-03 20:50 | 48.45405 | 16.46200 | 4981 ft | 183 kts | 176° |
| 2026-05-03 20:50 | 48.44160 | 16.46341 | 4984 ft | 175 kts | 176° |
| 2026-05-03 20:50 | 48.42977 | 16.46474 | 4990 ft | 169 kts | 176° |
| 2026-05-03 20:50 | 48.41792 | 16.46608 | 4984 ft | 171 kts | 176° |
| 2026-05-03 20:51 | 48.40623 | 16.46739 | 4972 ft | 167 kts | 176° |
| 2026-05-03 20:51 | 48.39476 | 16.46868 | 4975 ft | 165 kts | 176° |
| 2026-05-03 20:51 | 48.38345 | 16.46994 | 4977 ft | 161 kts | 176° |
| 2026-05-03 20:51 | 48.37244 | 16.47247 | 4994 ft | 163 kts | 169° |
| 2026-05-03 20:52 | 48.36159 | 16.47635 | 4993 ft | 155 kts | 168° |
| 2026-05-03 20:52 | 48.35160 | 16.48029 | 4984 ft | 143 kts | 167° |
| 2026-05-03 20:52 | 48.34535 | 16.48283 | 5019 ft | 138 kts | 167° |
| 2026-05-03 20:52 | 48.33587 | 16.48675 | 4959 ft | 141 kts | 167° |
| 2026-05-03 20:53 | 48.32655 | 16.49065 | 4796 ft | 141 kts | 167° |
| 2026-05-03 20:53 | 48.31714 | 16.49461 | 4617 ft | 140 kts | 167° |
| 2026-05-03 20:53 | 48.30779 | 16.49855 | 4435 ft | 139 kts | 167° |
| 2026-05-03 20:53 | 48.29864 | 16.50243 | 4249 ft | 134 kts | 168° |
| 2026-05-03 20:54 | 48.28991 | 16.50613 | 4081 ft | 127 kts | 168° |
| 2026-05-03 20:54 | 48.27331 | 16.51315 | 3741 ft | 124 kts | 168° |
| 2026-05-03 20:54 | 48.26502 | 16.51665 | 3565 ft | 123 kts | 168° |
| 2026-05-03 20:55 | 48.25684 | 16.52012 | 3418 ft | 122 kts | 168° |
| 2026-05-03 20:55 | 48.24867 | 16.52356 | 3260 ft | 121 kts | 168° |
| 2026-05-03 20:55 | 48.24063 | 16.52697 | 3099 ft | 120 kts | 167° |
| 2026-05-03 20:55 | 48.23262 | 16.53036 | 2936 ft | 120 kts | 167° |
| 2026-05-03 20:56 | 48.22458 | 16.53378 | 2776 ft | 120 kts | 167° |
| 2026-05-03 20:56 | 48.21648 | 16.53721 | 2611 ft | 121 kts | 166° |
| 2026-05-03 20:56 | 48.20849 | 16.54065 | 2473 ft | 119 kts | 166° |
| 2026-05-03 20:56 | 48.20056 | 16.54397 | 2320 ft | 118 kts | 167° |
| 2026-05-03 20:57 | 48.19259 | 16.54729 | 2157 ft | 119 kts | 166° |
| 2026-05-03 20:57 | 48.18474 | 16.55061 | 2010 ft | 116 kts | 166° |
| 2026-05-03 20:57 | 48.17706 | 16.55394 | 1802 ft | 115 kts | 165° |
| 2026-05-03 20:57 | 48.16923 | 16.55722 | 1629 ft | 117 kts | 164° |
| 2026-05-03 20:58 | 48.16144 | 16.56056 | 1471 ft | 117 kts | 164° |
| 2026-05-03 20:58 | 48.15347 | 16.56398 | 1300 ft | 120 kts | 165° |
| 2026-05-03 20:58 | 48.14535 | 16.56738 | 1216 ft | 123 kts | 164° |
| 2026-05-03 20:58 | 48.13691 | 16.57100 | 1055 ft | 129 kts | 164° |
| 2026-05-03 20:59 | 48.12821 | 16.57457 | 880 ft | 130 kts | 163° |
| 2026-05-03 20:59 | 48.11947 | 16.57831 | 644 ft | 130 kts | 163° |
| 2026-05-03 20:59 | 48.11152 | 16.58166 | 617 ft | 102 kts | 164° |
| 2026-05-03 20:59 | 48.10608 | 16.58399 | 614 ft | 60 kts | 164° |
| 2026-05-03 21:00 | 48.10324 | 16.58464 | 608 ft | 33 kts | 186° |
| 2026-05-03 21:00 | 48.10181 | 16.58419 | 608 ft | 30 kts | 193° |
| 2026-05-03 21:00 | 48.10105 | 16.58211 | 608 ft | 18 kts | 306° |
| 2026-05-03 21:00 | 48.10219 | 16.58143 | 614 ft | 17 kts | 344° |
| 2026-05-03 21:01 | 48.10334 | 16.58095 | 611 ft | 17 kts | 344° |
| 2026-05-03 21:01 | 48.10445 | 16.58049 | 609 ft | 16 kts | 344° |
| 2026-05-03 21:01 | 48.10551 | 16.58005 | 613 ft | 16 kts | 344° |
| 2026-05-03 21:01 | 48.10667 | 16.57955 | 615 ft | 19 kts | 344° |
| 2026-05-03 21:02 | 48.10811 | 16.57897 | 616 ft | 24 kts | 345° |
| 2026-05-03 21:02 | 48.10981 | 16.57822 | 611 ft | 27 kts | 343° |
| 2026-05-03 21:02 | 48.11152 | 16.57725 | 609 ft | 26 kts | 312° |
| 2026-05-03 21:02 | 48.11230 | 16.57494 | 616 ft | 24 kts | 296° |
| 2026-05-03 21:03 | 48.11300 | 16.57277 | 621 ft | 23 kts | 296° |
| 2026-05-03 21:03 | 48.11369 | 16.57067 | 611 ft | 22 kts | 296° |
| 2026-05-03 21:03 | 48.11435 | 16.56864 | 620 ft | 21 kts | 295° |
| 2026-05-03 21:03 | 48.11499 | 16.56666 | 609 ft | 21 kts | 296° |
| 2026-05-03 21:04 | 48.11562 | 16.56474 | 616 ft | 20 kts | 296° |
| 2026-05-03 21:04 | 48.11623 | 16.56289 | 617 ft | 20 kts | 296° |
| 2026-05-03 21:04 | 48.11681 | 16.56111 | 615 ft | 19 kts | 296° |
| 2026-05-03 21:04 | 48.11737 | 16.55933 | 618 ft | 18 kts | 295° |
| 2026-05-03 21:05 | 48.11805 | 16.55788 | 615 ft | 18 kts | 344° |
| 2026-05-03 21:05 | 48.11897 | 16.55763 | 614 ft | 3 kts | 348° |